Alpine Haven, Vermont
Current Conditions -  °F | °C
As of 9:35 PM on Friday 24 Oct 2014 (Local Time) from KEFK Reporting Station
Scattered Clouds Scattered Clouds  
Wind Chill: 41°   Ceiling: Unl
Heat Index: 41°   Visibility: 10mi
Dew Point: 34°   Wind: 3mph
Humidity: 77%   Direction: 330°NNW
Pressure: 29.81"   Gusts: NA
Location:  44.8557°N, 72.6016°W
Report Text: KEFK 250135Z AUTO 33003KT 10SM SCT085 05/01 A2981 RMK AO2 T00490012
Loading
Personal Weather Stations






























Interactive Weather Map New forecast layout! Learn more

10-Day Weather Forecast

Advertisements
Track Severe Weather on mobile